sensor_id;sensor_type;location;lat;lon;timestamp;P1;durP1;ratioP1;P2;durP2;ratioP2
14377;SDS011;7272;53.668;9.578;2023-01-29T00:00:06;10.77;;;9.67;;
14377;SDS011;7272;53.668;9.578;2023-01-29T00:03:16;11.10;;;9.97;;
14377;SDS011;7272;53.668;9.578;2023-01-29T00:06:18;11.27;;;9.93;;
14377;SDS011;7272;53.668;9.578;2023-01-29T00:09:20;13.13;;;11.50;;
14377;SDS011;7272;53.668;9.578;2023-01-29T00:12:22;9.90;;;8.97;;
14377;SDS011;7272;53.668;9.578;2023-01-29T00:15:25;9.97;;;8.97;;
14377;SDS011;7272;53.668;9.578;2023-01-29T00:18:27;11.90;;;10.43;;
14377;SDS011;7272;53.668;9.578;2023-01-29T00:21:30;9.80;;;8.83;;
14377;SDS011;7272;53.668;9.578;2023-01-29T00:24:32;10.60;;;9.43;;
14377;SDS011;7272;53.668;9.578;2023-01-29T00:27:34;10.83;;;9.70;;
14377;SDS011;7272;53.668;9.578;2023-01-29T00:30:39;10.80;;;9.33;;
14377;SDS011;7272;53.668;9.578;2023-01-29T00:33:41;12.80;;;10.47;;
14377;SDS011;7272;53.668;9.578;2023-01-29T00:36:43;10.90;;;9.10;;
14377;SDS011;7272;53.668;9.578;2023-01-29T00:39:46;11.27;;;9.10;;
14377;SDS011;7272;53.668;9.578;2023-01-29T00:42:48;10.40;;;9.30;;
14377;SDS011;7272;53.668;9.578;2023-01-29T00:46:09;10.53;;;9.53;;
14377;SDS011;7272;53.668;9.578;2023-01-29T00:49:11;11.57;;;8.93;;
14377;SDS011;7272;53.668;9.578;2023-01-29T00:52:13;10.40;;;8.83;;
14377;SDS011;7272;53.668;9.578;2023-01-29T00:55:24;10.10;;;9.00;;
14377;SDS011;7272;53.668;9.578;2023-01-29T00:58:26;12.50;;;9.17;;
14377;SDS011;7272;53.668;9.578;2023-01-29T01:01:35;10.60;;;9.50;;
14377;SDS011;7272;53.668;9.578;2023-01-29T01:04:54;11.47;;;10.30;;
14377;SDS011;7272;53.668;9.578;2023-01-29T01:07:57;11.10;;;9.67;;
14377;SDS011;7272;53.668;9.578;2023-01-29T01:11:00;13.07;;;9.00;;
14377;SDS011;7272;53.668;9.578;2023-01-29T01:14:03;11.83;;;9.57;;
14377;SDS011;7272;53.668;9.578;2023-01-29T01:17:08;14.53;;;9.53;;
14377;SDS011;7272;53.668;9.578;2023-01-29T01:20:11;11.03;;;9.63;;
14377;SDS011;7272;53.668;9.578;2023-01-29T01:23:14;11.90;;;9.60;;
14377;SDS011;7272;53.668;9.578;2023-01-29T01:26:16;11.40;;;9.43;;
14377;SDS011;7272;53.668;9.578;2023-01-29T01:29:18;10.53;;;9.43;;
14377;SDS011;7272;53.668;9.578;2023-01-29T01:32:21;11.80;;;9.47;;
14377;SDS011;7272;53.668;9.578;2023-01-29T01:35:23;13.50;;;11.67;;
14377;SDS011;7272;53.668;9.578;2023-01-29T01:38:25;11.87;;;9.47;;
14377;SDS011;7272;53.668;9.578;2023-01-29T01:41:28;9.93;;;8.93;;
14377;SDS011;7272;53.668;9.578;2023-01-29T01:47:58;11.30;;;10.10;;
14377;SDS011;7272;53.668;9.578;2023-01-29T01:51:03;11.57;;;9.67;;
14377;SDS011;7272;53.668;9.578;2023-01-29T01:54:07;11.77;;;9.93;;
14377;SDS011;7272;53.668;9.578;2023-01-29T01:57:13;11.20;;;10.03;;
14377;SDS011;7272;53.668;9.578;2023-01-29T02:00:24;9.93;;;8.93;;
14377;SDS011;7272;53.668;9.578;2023-01-29T02:03:28;10.07;;;8.80;;
14377;SDS011;7272;53.668;9.578;2023-01-29T02:06:50;9.70;;;8.33;;
14377;SDS011;7272;53.668;9.578;2023-01-29T02:10:12;9.93;;;8.87;;
14377;SDS011;7272;53.668;9.578;2023-01-29T02:13:17;11.47;;;9.17;;
14377;SDS011;7272;53.668;9.578;2023-01-29T02:16:19;12.13;;;9.43;;
14377;SDS011;7272;53.668;9.578;2023-01-29T02:19:25;11.33;;;9.47;;
14377;SDS011;7272;53.668;9.578;2023-01-29T02:22:50;11.77;;;9.43;;
14377;SDS011;7272;53.668;9.578;2023-01-29T02:26:25;12.47;;;10.97;;
14377;SDS011;7272;53.668;9.578;2023-01-29T02:29:53;10.63;;;9.53;;
14377;SDS011;7272;53.668;9.578;2023-01-29T02:33:00;10.90;;;9.10;;
14377;SDS011;7272;53.668;9.578;2023-01-29T02:36:14;11.13;;;9.77;;
14377;SDS011;7272;53.668;9.578;2023-01-29T02:39:22;12.30;;;10.97;;
14377;SDS011;7272;53.668;9.578;2023-01-29T02:42:32;10.07;;;9.07;;
14377;SDS011;7272;53.668;9.578;2023-01-29T02:45:42;12.00;;;10.50;;
14377;SDS011;7272;53.668;9.578;2023-01-29T02:48:48;11.93;;;10.73;;
14377;SDS011;7272;53.668;9.578;2023-01-29T02:51:59;10.20;;;9.03;;
14377;SDS011;7272;53.668;9.578;2023-01-29T02:55:06;9.63;;;8.63;;
14377;SDS011;7272;53.668;9.578;2023-01-29T02:58:12;11.73;;;10.23;;
14377;SDS011;7272;53.668;9.578;2023-01-29T03:01:23;12.47;;;9.83;;
14377;SDS011;7272;53.668;9.578;2023-01-29T03:04:32;12.03;;;9.87;;
14377;SDS011;7272;53.668;9.578;2023-01-29T03:07:44;10.40;;;9.07;;
14377;SDS011;7272;53.668;9.578;2023-01-29T03:11:00;10.43;;;9.40;;
14377;SDS011;7272;53.668;9.578;2023-01-29T03:14:05;10.33;;;9.23;;
14377;SDS011;7272;53.668;9.578;2023-01-29T03:17:11;10.00;;;8.73;;
14377;SDS011;7272;53.668;9.578;2023-01-29T03:20:14;10.40;;;8.60;;
14377;SDS011;7272;53.668;9.578;2023-01-29T03:23:20;9.33;;;8.33;;
14377;SDS011;7272;53.668;9.578;2023-01-29T03:26:45;10.23;;;8.67;;
14377;SDS011;7272;53.668;9.578;2023-01-29T03:30:09;12.07;;;8.60;;
14377;SDS011;7272;53.668;9.578;2023-01-29T03:33:43;9.67;;;8.70;;
14377;SDS011;7272;53.668;9.578;2023-01-29T03:36:50;9.70;;;8.77;;
14377;SDS011;7272;53.668;9.578;2023-01-29T03:39:56;9.97;;;8.27;;
14377;SDS011;7272;53.668;9.578;2023-01-29T03:42:59;10.20;;;8.70;;
14377;SDS011;7272;53.668;9.578;2023-01-29T03:46:12;10.70;;;9.20;;
14377;SDS011;7272;53.668;9.578;2023-01-29T03:49:21;10.17;;;9.17;;
14377;SDS011;7272;53.668;9.578;2023-01-29T03:52:34;11.63;;;9.33;;
14377;SDS011;7272;53.668;9.578;2023-01-29T03:55:40;10.30;;;9.20;;
14377;SDS011;7272;53.668;9.578;2023-01-29T03:58:55;10.70;;;9.50;;
14377;SDS011;7272;53.668;9.578;2023-01-29T04:02:17;9.57;;;8.57;;
14377;SDS011;7272;53.668;9.578;2023-01-29T04:05:30;9.33;;;8.33;;
14377;SDS011;7272;53.668;9.578;2023-01-29T04:08:47;10.67;;;9.63;;
14377;SDS011;7272;53.668;9.578;2023-01-29T04:11:56;9.90;;;9.00;;
14377;SDS011;7272;53.668;9.578;2023-01-29T04:15:04;10.77;;;9.50;;
14377;SDS011;7272;53.668;9.578;2023-01-29T04:18:09;9.27;;;8.37;;
14377;SDS011;7272;53.668;9.578;2023-01-29T04:21:34;10.53;;;9.13;;
14377;SDS011;7272;53.668;9.578;2023-01-29T04:24:37;9.30;;;8.37;;
14377;SDS011;7272;53.668;9.578;2023-01-29T04:27:41;10.13;;;8.50;;
14377;SDS011;7272;53.668;9.578;2023-01-29T04:30:52;9.67;;;8.73;;
14377;SDS011;7272;53.668;9.578;2023-01-29T04:33:58;9.83;;;8.83;;
14377;SDS011;7272;53.668;9.578;2023-01-29T04:37:13;10.10;;;9.00;;
14377;SDS011;7272;53.668;9.578;2023-01-29T04:40:19;10.03;;;9.00;;
14377;SDS011;7272;53.668;9.578;2023-01-29T04:43:24;10.20;;;9.20;;
14377;SDS011;7272;53.668;9.578;2023-01-29T04:46:32;9.83;;;8.87;;
14377;SDS011;7272;53.668;9.578;2023-01-29T04:49:40;9.10;;;8.20;;
14377;SDS011;7272;53.668;9.578;2023-01-29T04:52:50;9.83;;;8.83;;
14377;SDS011;7272;53.668;9.578;2023-01-29T04:55:58;9.73;;;8.67;;
14377;SDS011;7272;53.668;9.578;2023-01-29T04:59:06;10.00;;;9.07;;
14377;SDS011;7272;53.668;9.578;2023-01-29T05:02:11;11.37;;;10.03;;
14377;SDS011;7272;53.668;9.578;2023-01-29T05:05:14;11.17;;;9.97;;
14377;SDS011;7272;53.668;9.578;2023-01-29T05:08:21;9.10;;;8.30;;
14377;SDS011;7272;53.668;9.578;2023-01-29T05:11:24;10.20;;;9.03;;
14377;SDS011;7272;53.668;9.578;2023-01-29T05:14:27;10.23;;;8.93;;
14377;SDS011;7272;53.668;9.578;2023-01-29T05:17:33;10.23;;;9.23;;
14377;SDS011;7272;53.668;9.578;2023-01-29T05:20:36;10.40;;;9.23;;
14377;SDS011;7272;53.668;9.578;2023-01-29T05:23:42;9.70;;;8.70;;
14377;SDS011;7272;53.668;9.578;2023-01-29T05:26:52;10.10;;;9.10;;
14377;SDS011;7272;53.668;9.578;2023-01-29T05:30:12;11.13;;;9.07;;
14377;SDS011;7272;53.668;9.578;2023-01-29T05:33:15;9.20;;;8.30;;
14377;SDS011;7272;53.668;9.578;2023-01-29T05:36:18;9.77;;;8.77;;
14377;SDS011;7272;53.668;9.578;2023-01-29T05:39:22;10.07;;;8.27;;
14377;SDS011;7272;53.668;9.578;2023-01-29T05:42:24;9.63;;;8.73;;
14377;SDS011;7272;53.668;9.578;2023-01-29T05:45:26;9.07;;;8.27;;
14377;SDS011;7272;53.668;9.578;2023-01-29T05:48:28;9.87;;;8.97;;
14377;SDS011;7272;53.668;9.578;2023-01-29T05:51:31;8.90;;;8.10;;
14377;SDS011;7272;53.668;9.578;2023-01-29T05:54:34;10.50;;;8.90;;
14377;SDS011;7272;53.668;9.578;2023-01-29T05:57:38;9.83;;;8.83;;
14377;SDS011;7272;53.668;9.578;2023-01-29T06:00:40;10.23;;;9.23;;
14377;SDS011;7272;53.668;9.578;2023-01-29T06:03:42;9.00;;;7.67;;
14377;SDS011;7272;53.668;9.578;2023-01-29T06:06:45;9.13;;;8.27;;
14377;SDS011;7272;53.668;9.578;2023-01-29T06:09:48;8.63;;;7.60;;
14377;SDS011;7272;53.668;9.578;2023-01-29T06:12:50;7.73;;;6.93;;
14377;SDS011;7272;53.668;9.578;2023-01-29T06:15:52;8.83;;;8.03;;
14377;SDS011;7272;53.668;9.578;2023-01-29T06:18:54;8.80;;;7.83;;
14377;SDS011;7272;53.668;9.578;2023-01-29T06:21:56;8.43;;;7.63;;
14377;SDS011;7272;53.668;9.578;2023-01-29T06:24:59;8.27;;;7.47;;
14377;SDS011;7272;53.668;9.578;2023-01-29T06:28:01;9.13;;;8.23;;
14377;SDS011;7272;53.668;9.578;2023-01-29T06:31:04;9.23;;;7.70;;
14377;SDS011;7272;53.668;9.578;2023-01-29T06:34:07;8.73;;;7.83;;
14377;SDS011;7272;53.668;9.578;2023-01-29T06:37:09;9.00;;;8.10;;
14377;SDS011;7272;53.668;9.578;2023-01-29T06:40:13;8.07;;;7.27;;
14377;SDS011;7272;53.668;9.578;2023-01-29T06:43:15;9.40;;;8.47;;
14377;SDS011;7272;53.668;9.578;2023-01-29T06:46:17;8.20;;;7.50;;
14377;SDS011;7272;53.668;9.578;2023-01-29T06:49:20;8.03;;;7.23;;
14377;SDS011;7272;53.668;9.578;2023-01-29T06:52:22;8.70;;;7.90;;
14377;SDS011;7272;53.668;9.578;2023-01-29T06:55:29;9.23;;;8.43;;
14377;SDS011;7272;53.668;9.578;2023-01-29T06:58:31;9.17;;;8.27;;
14377;SDS011;7272;53.668;9.578;2023-01-29T07:01:33;9.43;;;8.53;;
14377;SDS011;7272;53.668;9.578;2023-01-29T07:04:35;10.30;;;9.27;;
14377;SDS011;7272;53.668;9.578;2023-01-29T07:07:38;9.10;;;8.10;;
14377;SDS011;7272;53.668;9.578;2023-01-29T07:10:41;10.10;;;9.10;;
14377;SDS011;7272;53.668;9.578;2023-01-29T07:13:43;11.50;;;10.33;;
14377;SDS011;7272;53.668;9.578;2023-01-29T07:16:45;10.37;;;9.37;;
14377;SDS011;7272;53.668;9.578;2023-01-29T07:19:47;11.13;;;10.07;;
14377;SDS011;7272;53.668;9.578;2023-01-29T07:22:49;11.53;;;10.43;;
14377;SDS011;7272;53.668;9.578;2023-01-29T07:25:52;11.97;;;10.77;;
14377;SDS011;7272;53.668;9.578;2023-01-29T07:28:54;12.57;;;11.30;;
14377;SDS011;7272;53.668;9.578;2023-01-29T07:31:56;11.73;;;10.63;;
14377;SDS011;7272;53.668;9.578;2023-01-29T07:34:58;11.70;;;10.50;;
14377;SDS011;7272;53.668;9.578;2023-01-29T07:38:00;11.80;;;10.60;;
14377;SDS011;7272;53.668;9.578;2023-01-29T07:41:03;13.17;;;11.73;;
14377;SDS011;7272;53.668;9.578;2023-01-29T07:44:06;13.50;;;12.10;;
14377;SDS011;7272;53.668;9.578;2023-01-29T07:47:08;12.90;;;11.60;;
14377;SDS011;7272;53.668;9.578;2023-01-29T07:50:10;13.43;;;12.00;;
14377;SDS011;7272;53.668;9.578;2023-01-29T07:53:13;13.30;;;11.87;;
14377;SDS011;7272;53.668;9.578;2023-01-29T07:56:16;13.77;;;12.43;;
14377;SDS011;7272;53.668;9.578;2023-01-29T07:59:18;14.50;;;13.00;;
14377;SDS011;7272;53.668;9.578;2023-01-29T08:02:20;14.17;;;12.67;;
14377;SDS011;7272;53.668;9.578;2023-01-29T08:05:22;16.33;;;14.63;;
14377;SDS011;7272;53.668;9.578;2023-01-29T08:08:24;16.10;;;14.50;;
14377;SDS011;7272;53.668;9.578;2023-01-29T08:11:28;14.80;;;13.20;;
14377;SDS011;7272;53.668;9.578;2023-01-29T08:14:32;16.77;;;14.93;;
14377;SDS011;7272;53.668;9.578;2023-01-29T08:17:34;16.23;;;14.73;;
14377;SDS011;7272;53.668;9.578;2023-01-29T08:20:38;14.80;;;13.40;;
14377;SDS011;7272;53.668;9.578;2023-01-29T08:23:40;15.97;;;13.63;;
14377;SDS011;7272;53.668;9.578;2023-01-29T08:26:44;18.03;;;16.13;;
14377;SDS011;7272;53.668;9.578;2023-01-29T08:29:46;18.67;;;16.77;;
14377;SDS011;7272;53.668;9.578;2023-01-29T08:32:48;17.53;;;15.83;;
14377;SDS011;7272;53.668;9.578;2023-01-29T08:35:50;16.97;;;15.27;;
14377;SDS011;7272;53.668;9.578;2023-01-29T08:38:52;16.43;;;14.83;;
14377;SDS011;7272;53.668;9.578;2023-01-29T08:41:57;17.60;;;15.67;;
14377;SDS011;7272;53.668;9.578;2023-01-29T08:45:00;20.23;;;15.87;;
14377;SDS011;7272;53.668;9.578;2023-01-29T08:48:05;20.70;;;18.60;;
14377;SDS011;7272;53.668;9.578;2023-01-29T08:51:07;19.70;;;17.80;;
14377;SDS011;7272;53.668;9.578;2023-01-29T08:54:09;19.50;;;17.40;;
14377;SDS011;7272;53.668;9.578;2023-01-29T08:57:13;19.43;;;17.53;;
14377;SDS011;7272;53.668;9.578;2023-01-29T09:00:15;20.20;;;18.10;;
14377;SDS011;7272;53.668;9.578;2023-01-29T09:03:17;19.00;;;17.00;;
14377;SDS011;7272;53.668;9.578;2023-01-29T09:06:19;20.63;;;18.33;;
14377;SDS011;7272;53.668;9.578;2023-01-29T09:09:21;18.20;;;16.30;;
14377;SDS011;7272;53.668;9.578;2023-01-29T09:12:25;18.20;;;16.27;;
14377;SDS011;7272;53.668;9.578;2023-01-29T09:15:27;19.77;;;17.67;;
14377;SDS011;7272;53.668;9.578;2023-01-29T09:18:32;19.57;;;17.03;;
14377;SDS011;7272;53.668;9.578;2023-01-29T09:21:34;19.33;;;17.27;;
14377;SDS011;7272;53.668;9.578;2023-01-29T09:24:36;16.53;;;14.77;;
14377;SDS011;7272;53.668;9.578;2023-01-29T09:27:39;19.27;;;17.17;;
14377;SDS011;7272;53.668;9.578;2023-01-29T09:30:44;19.10;;;17.10;;
14377;SDS011;7272;53.668;9.578;2023-01-29T09:33:47;20.23;;;18.13;;
14377;SDS011;7272;53.668;9.578;2023-01-29T09:36:50;19.37;;;17.37;;
14377;SDS011;7272;53.668;9.578;2023-01-29T09:39:52;18.47;;;16.57;;
14377;SDS011;7272;53.668;9.578;2023-01-29T09:42:56;19.30;;;16.20;;
14377;SDS011;7272;53.668;9.578;2023-01-29T09:46:03;20.77;;;18.63;;
14377;SDS011;7272;53.668;9.578;2023-01-29T09:49:13;18.97;;;16.97;;
14377;SDS011;7272;53.668;9.578;2023-01-29T09:52:24;21.93;;;17.57;;
14377;SDS011;7272;53.668;9.578;2023-01-29T09:55:28;18.53;;;16.67;;
14377;SDS011;7272;53.668;9.578;2023-01-29T09:58:36;18.80;;;16.80;;
14377;SDS011;7272;53.668;9.578;2023-01-29T10:01:45;16.83;;;15.13;;
14377;SDS011;7272;53.668;9.578;2023-01-29T10:04:58;19.37;;;17.27;;
14377;SDS011;7272;53.668;9.578;2023-01-29T10:08:23;17.83;;;16.10;;
14377;SDS011;7272;53.668;9.578;2023-01-29T10:11:47;20.10;;;18.10;;
14377;SDS011;7272;53.668;9.578;2023-01-29T10:15:00;20.97;;;18.77;;
14377;SDS011;7272;53.668;9.578;2023-01-29T10:18:27;18.63;;;16.73;;
14377;SDS011;7272;53.668;9.578;2023-01-29T10:25:13;20.30;;;18.20;;
14377;SDS011;7272;53.668;9.578;2023-01-29T10:28:19;21.40;;;19.27;;
14377;SDS011;7272;53.668;9.578;2023-01-29T10:31:28;21.77;;;19.13;;
14377;SDS011;7272;53.668;9.578;2023-01-29T10:34:32;20.97;;;18.77;;
14377;SDS011;7272;53.668;9.578;2023-01-29T10:37:39;21.17;;;19.03;;
14377;SDS011;7272;53.668;9.578;2023-01-29T10:40:44;21.87;;;19.67;;
14377;SDS011;7272;53.668;9.578;2023-01-29T10:43:53;20.97;;;18.80;;
14377;SDS011;7272;53.668;9.578;2023-01-29T10:47:19;22.00;;;19.57;;
14377;SDS011;7272;53.668;9.578;2023-01-29T10:50:38;22.87;;;20.50;;
14377;SDS011;7272;53.668;9.578;2023-01-29T10:53:52;21.23;;;18.90;;
14377;SDS011;7272;53.668;9.578;2023-01-29T10:57:07;21.13;;;18.83;;
14377;SDS011;7272;53.668;9.578;2023-01-29T11:00:18;19.57;;;17.60;;
14377;SDS011;7272;53.668;9.578;2023-01-29T11:03:25;21.47;;;19.37;;
14377;SDS011;7272;53.668;9.578;2023-01-29T11:06:28;19.73;;;17.80;;
14377;SDS011;7272;53.668;9.578;2023-01-29T11:09:33;20.97;;;18.87;;
14377;SDS011;7272;53.668;9.578;2023-01-29T11:12:40;21.87;;;19.67;;
14377;SDS011;7272;53.668;9.578;2023-01-29T11:15:43;20.27;;;18.27;;
14377;SDS011;7272;53.668;9.578;2023-01-29T11:18:50;21.40;;;19.30;;
14377;SDS011;7272;53.668;9.578;2023-01-29T11:21:57;20.97;;;18.87;;
14377;SDS011;7272;53.668;9.578;2023-01-29T11:25:09;19.70;;;17.83;;
14377;SDS011;7272;53.668;9.578;2023-01-29T11:28:16;20.53;;;18.63;;
14377;SDS011;7272;53.668;9.578;2023-01-29T11:31:37;22.43;;;20.13;;
14377;SDS011;7272;53.668;9.578;2023-01-29T11:34:57;22.67;;;20.27;;
14377;SDS011;7272;53.668;9.578;2023-01-29T11:38:08;19.77;;;17.87;;
14377;SDS011;7272;53.668;9.578;2023-01-29T11:41:18;21.37;;;19.27;;
14377;SDS011;7272;53.668;9.578;2023-01-29T11:44:31;19.93;;;17.93;;
14377;SDS011;7272;53.668;9.578;2023-01-29T11:47:35;20.03;;;18.13;;
14377;SDS011;7272;53.668;9.578;2023-01-29T11:50:41;20.67;;;18.63;;
14377;SDS011;7272;53.668;9.578;2023-01-29T11:53:44;19.90;;;18.00;;
14377;SDS011;7272;53.668;9.578;2023-01-29T11:56:52;47.83;;;31.87;;
14377;SDS011;7272;53.668;9.578;2023-01-29T11:59:55;49.73;;;36.10;;
14377;SDS011;7272;53.668;9.578;2023-01-29T12:03:01;22.73;;;20.50;;
14377;SDS011;7272;53.668;9.578;2023-01-29T12:06:12;21.53;;;19.33;;
14377;SDS011;7272;53.668;9.578;2023-01-29T12:09:20;21.33;;;19.07;;
14377;SDS011;7272;53.668;9.578;2023-01-29T12:12:28;20.23;;;18.33;;
14377;SDS011;7272;53.668;9.578;2023-01-29T12:15:32;20.03;;;18.03;;
14377;SDS011;7272;53.668;9.578;2023-01-29T12:18:35;21.53;;;19.33;;
14377;SDS011;7272;53.668;9.578;2023-01-29T12:21:44;20.40;;;18.47;;
14377;SDS011;7272;53.668;9.578;2023-01-29T12:24:51;20.60;;;18.60;;
14377;SDS011;7272;53.668;9.578;2023-01-29T12:27:58;19.63;;;17.70;;
14377;SDS011;7272;53.668;9.578;2023-01-29T12:31:07;19.00;;;17.10;;
14377;SDS011;7272;53.668;9.578;2023-01-29T12:34:17;19.10;;;17.20;;
14377;SDS011;7272;53.668;9.578;2023-01-29T12:37:27;18.63;;;16.73;;
14377;SDS011;7272;53.668;9.578;2023-01-29T12:40:38;19.47;;;17.60;;
14377;SDS011;7272;53.668;9.578;2023-01-29T12:43:43;19.90;;;17.73;;
14377;SDS011;7272;53.668;9.578;2023-01-29T12:46:51;18.47;;;16.60;;
14377;SDS011;7272;53.668;9.578;2023-01-29T12:49:56;18.37;;;16.77;;
14377;SDS011;7272;53.668;9.578;2023-01-29T12:53:04;19.30;;;17.50;;
14377;SDS011;7272;53.668;9.578;2023-01-29T12:56:14;18.87;;;17.07;;
14377;SDS011;7272;53.668;9.578;2023-01-29T12:59:21;20.50;;;17.87;;
14377;SDS011;7272;53.668;9.578;2023-01-29T13:02:29;19.93;;;17.93;;
14377;SDS011;7272;53.668;9.578;2023-01-29T13:05:36;19.93;;;17.93;;
14377;SDS011;7272;53.668;9.578;2023-01-29T13:08:45;19.07;;;17.27;;
14377;SDS011;7272;53.668;9.578;2023-01-29T13:11:53;17.93;;;16.23;;
14377;SDS011;7272;53.668;9.578;2023-01-29T13:14:59;19.33;;;17.37;;
14377;SDS011;7272;53.668;9.578;2023-01-29T13:18:17;18.63;;;16.80;;
14377;SDS011;7272;53.668;9.578;2023-01-29T13:21:32;18.53;;;16.80;;
14377;SDS011;7272;53.668;9.578;2023-01-29T13:24:39;19.87;;;18.00;;
14377;SDS011;7272;53.668;9.578;2023-01-29T13:27:42;19.60;;;17.60;;
14377;SDS011;7272;53.668;9.578;2023-01-29T13:30:45;19.43;;;17.63;;
14377;SDS011;7272;53.668;9.578;2023-01-29T13:33:51;20.53;;;18.43;;
14377;SDS011;7272;53.668;9.578;2023-01-29T13:36:56;19.60;;;17.57;;
14377;SDS011;7272;53.668;9.578;2023-01-29T13:40:04;20.17;;;18.37;;
14377;SDS011;7272;53.668;9.578;2023-01-29T13:43:10;19.97;;;18.03;;
14377;SDS011;7272;53.668;9.578;2023-01-29T13:46:20;19.93;;;18.10;;
14377;SDS011;7272;53.668;9.578;2023-01-29T13:49:28;20.93;;;18.83;;
14377;SDS011;7272;53.668;9.578;2023-01-29T13:52:34;19.43;;;17.63;;
14377;SDS011;7272;53.668;9.578;2023-01-29T13:55:42;19.73;;;17.73;;
14377;SDS011;7272;53.668;9.578;2023-01-29T13:58:53;20.60;;;18.50;;
14377;SDS011;7272;53.668;9.578;2023-01-29T14:01:59;20.60;;;18.70;;
14377;SDS011;7272;53.668;9.578;2023-01-29T14:08:40;19.60;;;17.60;;
14377;SDS011;7272;53.668;9.578;2023-01-29T14:11:47;19.47;;;17.53;;
14377;SDS011;7272;53.668;9.578;2023-01-29T14:14:58;20.07;;;17.97;;
14377;SDS011;7272;53.668;9.578;2023-01-29T14:21:27;19.87;;;17.97;;
14377;SDS011;7272;53.668;9.578;2023-01-29T14:24:32;20.67;;;18.47;;
14377;SDS011;7272;53.668;9.578;2023-01-29T14:27:36;21.57;;;19.50;;
14377;SDS011;7272;53.668;9.578;2023-01-29T14:30:38;21.00;;;19.10;;
14377;SDS011;7272;53.668;9.578;2023-01-29T14:33:41;20.97;;;18.93;;
14377;SDS011;7272;53.668;9.578;2023-01-29T14:36:44;22.90;;;20.50;;
14377;SDS011;7272;53.668;9.578;2023-01-29T14:39:47;21.30;;;19.20;;
14377;SDS011;7272;53.668;9.578;2023-01-29T14:42:55;23.30;;;21.00;;
14377;SDS011;7272;53.668;9.578;2023-01-29T14:49:48;24.13;;;21.40;;
14377;SDS011;7272;53.668;9.578;2023-01-29T14:52:51;22.00;;;19.57;;
14377;SDS011;7272;53.668;9.578;2023-01-29T14:55:55;23.07;;;20.87;;
14377;SDS011;7272;53.668;9.578;2023-01-29T14:59:10;22.37;;;20.10;;
14377;SDS011;7272;53.668;9.578;2023-01-29T15:02:17;22.53;;;20.30;;
14377;SDS011;7272;53.668;9.578;2023-01-29T15:05:24;22.03;;;19.93;;
14377;SDS011;7272;53.668;9.578;2023-01-29T15:08:31;24.43;;;22.03;;
14377;SDS011;7272;53.668;9.578;2023-01-29T15:11:40;23.97;;;21.50;;
14377;SDS011;7272;53.668;9.578;2023-01-29T15:14:51;22.83;;;20.50;;
14377;SDS011;7272;53.668;9.578;2023-01-29T15:18:02;26.37;;;23.67;;
14377;SDS011;7272;53.668;9.578;2023-01-29T15:21:09;24.50;;;21.57;;
14377;SDS011;7272;53.668;9.578;2023-01-29T15:24:12;24.27;;;21.77;;
14377;SDS011;7272;53.668;9.578;2023-01-29T15:27:15;22.43;;;20.07;;
14377;SDS011;7272;53.668;9.578;2023-01-29T15:30:21;23.53;;;21.20;;
14377;SDS011;7272;53.668;9.578;2023-01-29T15:33:26;24.00;;;21.60;;
14377;SDS011;7272;53.668;9.578;2023-01-29T15:36:29;22.30;;;20.07;;
14377;SDS011;7272;53.668;9.578;2023-01-29T15:39:32;25.63;;;22.93;;
14377;SDS011;7272;53.668;9.578;2023-01-29T15:42:44;21.90;;;19.73;;
14377;SDS011;7272;53.668;9.578;2023-01-29T15:45:49;23.87;;;21.33;;
14377;SDS011;7272;53.668;9.578;2023-01-29T15:48:51;23.40;;;21.10;;
14377;SDS011;7272;53.668;9.578;2023-01-29T15:51:55;24.37;;;21.97;;
14377;SDS011;7272;53.668;9.578;2023-01-29T15:55:00;23.80;;;21.30;;
14377;SDS011;7272;53.668;9.578;2023-01-29T15:58:05;25.67;;;22.40;;
14377;SDS011;7272;53.668;9.578;2023-01-29T16:01:13;26.57;;;23.20;;
14377;SDS011;7272;53.668;9.578;2023-01-29T16:04:16;25.20;;;22.60;;
14377;SDS011;7272;53.668;9.578;2023-01-29T16:07:24;25.67;;;21.67;;
14377;SDS011;7272;53.668;9.578;2023-01-29T16:10:27;23.27;;;20.93;;
14377;SDS011;7272;53.668;9.578;2023-01-29T16:13:31;27.13;;;24.33;;
14377;SDS011;7272;53.668;9.578;2023-01-29T16:16:37;28.07;;;23.13;;
14377;SDS011;7272;53.668;9.578;2023-01-29T16:19:39;25.53;;;22.83;;
14377;SDS011;7272;53.668;9.578;2023-01-29T16:22:41;25.47;;;22.87;;
14377;SDS011;7272;53.668;9.578;2023-01-29T16:25:44;26.17;;;23.47;;
14377;SDS011;7272;53.668;9.578;2023-01-29T16:28:48;26.03;;;23.40;;
14377;SDS011;7272;53.668;9.578;2023-01-29T16:31:52;27.43;;;24.43;;
14377;SDS011;7272;53.668;9.578;2023-01-29T16:35:00;27.20;;;24.43;;
14377;SDS011;7272;53.668;9.578;2023-01-29T16:38:03;28.83;;;25.93;;
14377;SDS011;7272;53.668;9.578;2023-01-29T16:41:12;27.60;;;24.70;;
14377;SDS011;7272;53.668;9.578;2023-01-29T16:44:31;25.40;;;22.77;;
14377;SDS011;7272;53.668;9.578;2023-01-29T16:47:39;25.47;;;22.87;;
14377;SDS011;7272;53.668;9.578;2023-01-29T16:50:41;26.47;;;23.57;;
14377;SDS011;7272;53.668;9.578;2023-01-29T16:53:51;27.80;;;24.93;;
14377;SDS011;7272;53.668;9.578;2023-01-29T16:56:57;27.17;;;24.40;;
14377;SDS011;7272;53.668;9.578;2023-01-29T17:00:03;27.80;;;25.00;;
14377;SDS011;7272;53.668;9.578;2023-01-29T17:03:09;29.37;;;26.30;;
14377;SDS011;7272;53.668;9.578;2023-01-29T17:06:17;27.33;;;24.53;;
14377;SDS011;7272;53.668;9.578;2023-01-29T17:09:22;27.43;;;24.53;;
14377;SDS011;7272;53.668;9.578;2023-01-29T17:12:27;29.57;;;26.47;;
14377;SDS011;7272;53.668;9.578;2023-01-29T17:15:33;29.17;;;26.03;;
14377;SDS011;7272;53.668;9.578;2023-01-29T17:18:37;28.83;;;25.73;;
14377;SDS011;7272;53.668;9.578;2023-01-29T17:21:40;31.60;;;28.40;;
14377;SDS011;7272;53.668;9.578;2023-01-29T17:24:42;32.00;;;28.40;;
14377;SDS011;7272;53.668;9.578;2023-01-29T17:27:44;28.47;;;25.47;;
14377;SDS011;7272;53.668;9.578;2023-01-29T17:30:50;28.20;;;25.20;;
14377;SDS011;7272;53.668;9.578;2023-01-29T17:33:54;27.27;;;24.37;;
14377;SDS011;7272;53.668;9.578;2023-01-29T17:36:56;33.20;;;27.50;;
14377;SDS011;7272;53.668;9.578;2023-01-29T17:39:57;28.60;;;25.70;;
14377;SDS011;7272;53.668;9.578;2023-01-29T17:43:00;28.93;;;26.00;;
14377;SDS011;7272;53.668;9.578;2023-01-29T17:46:02;31.50;;;28.17;;
14377;SDS011;7272;53.668;9.578;2023-01-29T17:52:20;27.93;;;25.03;;
14377;SDS011;7272;53.668;9.578;2023-01-29T17:55:22;26.43;;;23.77;;
14377;SDS011;7272;53.668;9.578;2023-01-29T17:58:24;29.63;;;25.17;;
14377;SDS011;7272;53.668;9.578;2023-01-29T18:01:27;25.13;;;22.60;;
14377;SDS011;7272;53.668;9.578;2023-01-29T18:04:30;28.83;;;25.23;;
14377;SDS011;7272;53.668;9.578;2023-01-29T18:07:32;30.23;;;27.03;;
14377;SDS011;7272;53.668;9.578;2023-01-29T18:10:35;24.37;;;21.83;;
14377;SDS011;7272;53.668;9.578;2023-01-29T18:13:36;25.77;;;23.13;;
14377;SDS011;7272;53.668;9.578;2023-01-29T18:16:41;25.77;;;23.13;;
14377;SDS011;7272;53.668;9.578;2023-01-29T18:19:45;26.10;;;23.40;;
14377;SDS011;7272;53.668;9.578;2023-01-29T18:22:48;27.93;;;25.03;;
14377;SDS011;7272;53.668;9.578;2023-01-29T18:25:50;27.93;;;25.03;;
14377;SDS011;7272;53.668;9.578;2023-01-29T18:28:53;36.73;;;32.90;;
14377;SDS011;7272;53.668;9.578;2023-01-29T18:31:55;35.07;;;31.47;;
14377;SDS011;7272;53.668;9.578;2023-01-29T18:34:59;33.73;;;30.07;;
14377;SDS011;7272;53.668;9.578;2023-01-29T18:38:01;32.73;;;29.10;;
14377;SDS011;7272;53.668;9.578;2023-01-29T18:41:03;33.73;;;30.20;;
14377;SDS011;7272;53.668;9.578;2023-01-29T18:44:06;28.10;;;25.27;;
14377;SDS011;7272;53.668;9.578;2023-01-29T18:47:08;29.90;;;26.70;;
14377;SDS011;7272;53.668;9.578;2023-01-29T18:50:11;28.83;;;25.83;;
14377;SDS011;7272;53.668;9.578;2023-01-29T18:53:13;28.73;;;25.80;;